sensor_id;sensor_type;location;lat;lon;timestamp;temperature;humidity
5775;DHT22;2913;51.120;6.772;2023-06-10T00:01:32;22.00;99.90
5775;DHT22;2913;51.120;6.772;2023-06-10T00:03:59;21.80;99.90
5775;DHT22;2913;51.120;6.772;2023-06-10T00:06:25;21.80;99.90
5775;DHT22;2913;51.120;6.772;2023-06-10T00:08:53;21.70;99.90
5775;DHT22;2913;51.120;6.772;2023-06-10T00:11:20;21.70;99.90
5775;DHT22;2913;51.120;6.772;2023-06-10T00:13:49;21.60;99.90
5775;DHT22;2913;51.120;6.772;2023-06-10T00:16:15;21.50;99.90
5775;DHT22;2913;51.120;6.772;2023-06-10T00:18:42;21.50;99.90
5775;DHT22;2913;51.120;6.772;2023-06-10T00:21:13;21.60;99.90
5775;DHT22;2913;51.120;6.772;2023-06-10T00:23:44;21.50;99.90
5775;DHT22;2913;51.120;6.772;2023-06-10T00:26:10;21.50;99.90
5775;DHT22;2913;51.120;6.772;2023-06-10T00:28:35;21.40;99.90
5775;DHT22;2913;51.120;6.772;2023-06-10T00:31:03;21.30;99.90
5775;DHT22;2913;51.120;6.772;2023-06-10T00:33:30;21.20;99.90
5775;DHT22;2913;51.120;6.772;2023-06-10T00:35:55;21.20;99.90
5775;DHT22;2913;51.120;6.772;2023-06-10T00:38:23;21.10;99.90
5775;DHT22;2913;51.120;6.772;2023-06-10T00:40:49;21.10;99.90
5775;DHT22;2913;51.120;6.772;2023-06-10T00:43:15;21.00;99.90
5775;DHT22;2913;51.120;6.772;2023-06-10T00:45:43;21.00;99.90
5775;DHT22;2913;51.120;6.772;2023-06-10T00:48:09;20.90;99.90
5775;DHT22;2913;51.120;6.772;2023-06-10T00:50:35;20.90;99.90
5775;DHT22;2913;51.120;6.772;2023-06-10T00:53:07;20.90;99.90
5775;DHT22;2913;51.120;6.772;2023-06-10T00:55:33;20.80;99.90
5775;DHT22;2913;51.120;6.772;2023-06-10T00:57:59;20.80;99.90
5775;DHT22;2913;51.120;6.772;2023-06-10T01:00:25;20.90;99.90
5775;DHT22;2913;51.120;6.772;2023-06-10T01:02:53;20.90;99.90
5775;DHT22;2913;51.120;6.772;2023-06-10T01:05:21;20.90;99.90
5775;DHT22;2913;51.120;6.772;2023-06-10T01:10:33;20.70;99.90
5775;DHT22;2913;51.120;6.772;2023-06-10T01:13:03;20.70;99.90
5775;DHT22;2913;51.120;6.772;2023-06-10T01:15:35;20.60;99.90
5775;DHT22;2913;51.120;6.772;2023-06-10T01:18:02;20.60;99.90
5775;DHT22;2913;51.120;6.772;2023-06-10T01:20:30;20.50;99.90
5775;DHT22;2913;51.120;6.772;2023-06-10T01:22:58;20.50;99.90
5775;DHT22;2913;51.120;6.772;2023-06-10T01:25:26;20.50;99.90
5775;DHT22;2913;51.120;6.772;2023-06-10T01:30:55;20.40;99.90
5775;DHT22;2913;51.120;6.772;2023-06-10T01:33:37;20.30;99.90
5775;DHT22;2913;51.120;6.772;2023-06-10T01:36:07;20.30;99.90
5775;DHT22;2913;51.120;6.772;2023-06-10T01:38:38;20.30;99.90
5775;DHT22;2913;51.120;6.772;2023-06-10T01:41:05;20.20;99.90
5775;DHT22;2913;51.120;6.772;2023-06-10T01:43:34;20.10;99.90
5775;DHT22;2913;51.120;6.772;2023-06-10T01:46:05;20.20;99.90
5775;DHT22;2913;51.120;6.772;2023-06-10T01:48:34;20.20;99.90
5775;DHT22;2913;51.120;6.772;2023-06-10T01:51:00;20.10;99.90
5775;DHT22;2913;51.120;6.772;2023-06-10T01:53:28;20.00;99.90
5775;DHT22;2913;51.120;6.772;2023-06-10T01:55:53;20.00;99.90
5775;DHT22;2913;51.120;6.772;2023-06-10T01:58:21;20.00;99.90
5775;DHT22;2913;51.120;6.772;2023-06-10T02:00:49;19.90;99.90
5775;DHT22;2913;51.120;6.772;2023-06-10T02:03:14;19.90;99.90
5775;DHT22;2913;51.120;6.772;2023-06-10T02:05:40;19.80;99.90
5775;DHT22;2913;51.120;6.772;2023-06-10T02:08:06;19.70;99.90
5775;DHT22;2913;51.120;6.772;2023-06-10T02:10:32;19.60;99.90
5775;DHT22;2913;51.120;6.772;2023-06-10T02:12:59;19.60;99.90
5775;DHT22;2913;51.120;6.772;2023-06-10T02:15:25;19.50;99.90
5775;DHT22;2913;51.120;6.772;2023-06-10T02:17:52;19.50;99.90
5775;DHT22;2913;51.120;6.772;2023-06-10T02:20:17;19.50;99.90
5775;DHT22;2913;51.120;6.772;2023-06-10T02:22:43;19.50;99.90
5775;DHT22;2913;51.120;6.772;2023-06-10T02:25:11;19.50;99.90
5775;DHT22;2913;51.120;6.772;2023-06-10T02:27:37;19.50;99.90
5775;DHT22;2913;51.120;6.772;2023-06-10T02:30:02;19.50;99.90
5775;DHT22;2913;51.120;6.772;2023-06-10T02:32:30;19.60;99.90
5775;DHT22;2913;51.120;6.772;2023-06-10T02:34:56;19.60;99.90
5775;DHT22;2913;51.120;6.772;2023-06-10T02:37:21;19.50;99.90
5775;DHT22;2913;51.120;6.772;2023-06-10T02:39:47;19.40;99.90
5775;DHT22;2913;51.120;6.772;2023-06-10T02:42:13;19.40;99.90
5775;DHT22;2913;51.120;6.772;2023-06-10T02:44:38;19.20;99.90
5775;DHT22;2913;51.120;6.772;2023-06-10T02:47:07;18.90;99.90
5775;DHT22;2913;51.120;6.772;2023-06-10T02:49:35;18.80;99.90
5775;DHT22;2913;51.120;6.772;2023-06-10T02:52:03;18.90;99.90
5775;DHT22;2913;51.120;6.772;2023-06-10T02:54:32;18.80;99.90
5775;DHT22;2913;51.120;6.772;2023-06-10T02:56:58;18.90;99.90
5775;DHT22;2913;51.120;6.772;2023-06-10T02:59:23;18.90;99.90
5775;DHT22;2913;51.120;6.772;2023-06-10T03:01:49;18.90;99.90
5775;DHT22;2913;51.120;6.772;2023-06-10T03:04:14;18.90;99.90
5775;DHT22;2913;51.120;6.772;2023-06-10T03:06:40;18.90;99.90
5775;DHT22;2913;51.120;6.772;2023-06-10T03:09:06;18.90;99.90
5775;DHT22;2913;51.120;6.772;2023-06-10T03:11:35;18.90;99.90
5775;DHT22;2913;51.120;6.772;2023-06-10T03:14:01;18.90;99.90
5775;DHT22;2913;51.120;6.772;2023-06-10T03:16:26;18.90;99.90
5775;DHT22;2913;51.120;6.772;2023-06-10T03:18:53;18.90;99.90
5775;DHT22;2913;51.120;6.772;2023-06-10T03:21:18;18.80;99.90
5775;DHT22;2913;51.120;6.772;2023-06-10T03:23:48;18.80;99.90
5775;DHT22;2913;51.120;6.772;2023-06-10T03:26:14;18.80;99.90
5775;DHT22;2913;51.120;6.772;2023-06-10T03:28:41;18.80;99.90
5775;DHT22;2913;51.120;6.772;2023-06-10T03:31:09;18.80;99.90
5775;DHT22;2913;51.120;6.772;2023-06-10T03:33:34;18.90;99.90
5775;DHT22;2913;51.120;6.772;2023-06-10T03:36:03;18.80;99.90
5775;DHT22;2913;51.120;6.772;2023-06-10T03:38:28;18.80;99.90
5775;DHT22;2913;51.120;6.772;2023-06-10T03:40:56;18.70;99.90
5775;DHT22;2913;51.120;6.772;2023-06-10T03:43:22;18.60;99.90
5775;DHT22;2913;51.120;6.772;2023-06-10T03:45:47;18.60;99.90
5775;DHT22;2913;51.120;6.772;2023-06-10T03:48:15;18.70;99.90
5775;DHT22;2913;51.120;6.772;2023-06-10T03:50:40;18.70;99.90
5775;DHT22;2913;51.120;6.772;2023-06-10T03:53:06;18.70;99.90
5775;DHT22;2913;51.120;6.772;2023-06-10T03:55:34;18.70;99.90
5775;DHT22;2913;51.120;6.772;2023-06-10T03:58:00;18.70;99.90
5775;DHT22;2913;51.120;6.772;2023-06-10T04:00:32;18.70;99.90
5775;DHT22;2913;51.120;6.772;2023-06-10T04:03:07;18.80;99.90
5775;DHT22;2913;51.120;6.772;2023-06-10T04:05:34;18.80;99.90
5775;DHT22;2913;51.120;6.772;2023-06-10T04:08:00;18.90;99.90
5775;DHT22;2913;51.120;6.772;2023-06-10T04:10:27;19.00;99.90
5775;DHT22;2913;51.120;6.772;2023-06-10T04:12:52;19.50;99.90
5775;DHT22;2913;51.120;6.772;2023-06-10T04:15:18;19.90;99.90
5775;DHT22;2913;51.120;6.772;2023-06-10T04:17:43;20.30;99.90
5775;DHT22;2913;51.120;6.772;2023-06-10T04:20:12;20.90;99.90
5775;DHT22;2913;51.120;6.772;2023-06-10T04:22:37;21.30;99.90
5775;DHT22;2913;51.120;6.772;2023-06-10T04:25:03;21.70;99.90
5775;DHT22;2913;51.120;6.772;2023-06-10T04:27:31;22.10;99.90
5775;DHT22;2913;51.120;6.772;2023-06-10T04:30:01;22.50;99.90
5775;DHT22;2913;51.120;6.772;2023-06-10T04:32:29;22.80;99.90
5775;DHT22;2913;51.120;6.772;2023-06-10T04:34:57;23.20;99.90
5775;DHT22;2913;51.120;6.772;2023-06-10T04:37:23;23.40;99.90
5775;DHT22;2913;51.120;6.772;2023-06-10T04:39:48;23.80;99.90
5775;DHT22;2913;51.120;6.772;2023-06-10T04:42:14;24.10;99.90
5775;DHT22;2913;51.120;6.772;2023-06-10T04:44:40;24.40;99.90
5775;DHT22;2913;51.120;6.772;2023-06-10T04:47:05;24.70;99.90
5775;DHT22;2913;51.120;6.772;2023-06-10T04:49:37;25.00;99.90
5775;DHT22;2913;51.120;6.772;2023-06-10T04:52:06;25.20;99.90
5775;DHT22;2913;51.120;6.772;2023-06-10T04:54:33;25.50;99.90
5775;DHT22;2913;51.120;6.772;2023-06-10T04:57:01;25.70;99.90
5775;DHT22;2913;51.120;6.772;2023-06-10T04:59:27;26.00;99.90
5775;DHT22;2913;51.120;6.772;2023-06-10T05:01:55;26.20;98.40
5775;DHT22;2913;51.120;6.772;2023-06-10T05:04:23;26.60;97.70
5775;DHT22;2913;51.120;6.772;2023-06-10T05:06:53;26.70;97.50
5775;DHT22;2913;51.120;6.772;2023-06-10T05:09:19;27.00;96.90
5775;DHT22;2913;51.120;6.772;2023-06-10T05:11:47;27.20;95.90
5775;DHT22;2913;51.120;6.772;2023-06-10T05:14:15;27.40;94.70
5775;DHT22;2913;51.120;6.772;2023-06-10T05:16:47;27.80;94.80
5775;DHT22;2913;51.120;6.772;2023-06-10T05:19:17;27.70;93.90
5775;DHT22;2913;51.120;6.772;2023-06-10T05:21:44;27.90;93.60
5775;DHT22;2913;51.120;6.772;2023-06-10T05:24:12;28.20;92.80
5775;DHT22;2913;51.120;6.772;2023-06-10T05:26:38;28.20;93.00
5775;DHT22;2913;51.120;6.772;2023-06-10T05:29:09;28.70;92.60
5775;DHT22;2913;51.120;6.772;2023-06-10T05:31:34;28.70;91.10
5775;DHT22;2913;51.120;6.772;2023-06-10T05:34:00;28.70;90.20
5775;DHT22;2913;51.120;6.772;2023-06-10T05:36:25;28.50;90.00
5775;DHT22;2913;51.120;6.772;2023-06-10T05:38:52;28.50;90.10
5775;DHT22;2913;51.120;6.772;2023-06-10T05:41:19;28.60;90.00
5775;DHT22;2913;51.120;6.772;2023-06-10T05:43:46;28.60;89.60
5775;DHT22;2913;51.120;6.772;2023-06-10T05:46:11;28.30;89.40
5775;DHT22;2913;51.120;6.772;2023-06-10T05:48:37;28.50;89.00
5775;DHT22;2913;51.120;6.772;2023-06-10T05:51:03;28.60;87.90
5775;DHT22;2913;51.120;6.772;2023-06-10T05:53:31;28.60;85.80
5775;DHT22;2913;51.120;6.772;2023-06-10T05:55:57;28.90;84.60
5775;DHT22;2913;51.120;6.772;2023-06-10T05:58:23;28.90;82.80
5775;DHT22;2913;51.120;6.772;2023-06-10T06:00:52;29.00;81.20
5775;DHT22;2913;51.120;6.772;2023-06-10T06:03:17;29.10;79.80
5775;DHT22;2913;51.120;6.772;2023-06-10T06:05:45;29.10;77.70
5775;DHT22;2913;51.120;6.772;2023-06-10T06:08:14;29.10;76.40
5775;DHT22;2913;51.120;6.772;2023-06-10T06:10:42;29.00;75.30
5775;DHT22;2913;51.120;6.772;2023-06-10T06:13:08;29.20;75.80
5775;DHT22;2913;51.120;6.772;2023-06-10T06:15:34;29.30;74.50
5775;DHT22;2913;51.120;6.772;2023-06-10T06:17:59;29.30;74.70
5775;DHT22;2913;51.120;6.772;2023-06-10T06:20:25;29.40;74.20
5775;DHT22;2913;51.120;6.772;2023-06-10T06:22:50;29.00;71.60
5775;DHT22;2913;51.120;6.772;2023-06-10T06:25:21;29.20;70.50
5775;DHT22;2913;51.120;6.772;2023-06-10T06:27:46;29.20;67.70
5775;DHT22;2913;51.120;6.772;2023-06-10T06:30:14;29.00;67.80
5775;DHT22;2913;51.120;6.772;2023-06-10T06:32:42;29.20;69.40
5775;DHT22;2913;51.120;6.772;2023-06-10T06:35:08;29.30;70.80
5775;DHT22;2913;51.120;6.772;2023-06-10T06:37:34;29.20;66.70
5775;DHT22;2913;51.120;6.772;2023-06-10T06:40:00;29.10;69.00
5775;DHT22;2913;51.120;6.772;2023-06-10T06:42:26;28.70;65.90
5775;DHT22;2913;51.120;6.772;2023-06-10T06:44:52;29.20;68.80
5775;DHT22;2913;51.120;6.772;2023-06-10T06:47:17;29.40;68.00
5775;DHT22;2913;51.120;6.772;2023-06-10T06:49:47;29.10;66.50
5775;DHT22;2913;51.120;6.772;2023-06-10T06:52:14;28.90;64.40
5775;DHT22;2913;51.120;6.772;2023-06-10T06:54:42;29.10;65.00
5775;DHT22;2913;51.120;6.772;2023-06-10T06:57:08;29.10;64.80
5775;DHT22;2913;51.120;6.772;2023-06-10T06:59:33;28.90;64.60
5775;DHT22;2913;51.120;6.772;2023-06-10T07:01:59;28.90;63.50
5775;DHT22;2913;51.120;6.772;2023-06-10T07:04:25;28.90;64.10
5775;DHT22;2913;51.120;6.772;2023-06-10T07:06:51;29.00;64.50
5775;DHT22;2913;51.120;6.772;2023-06-10T07:09:21;28.60;65.30
5775;DHT22;2913;51.120;6.772;2023-06-10T07:11:49;28.50;66.30
5775;DHT22;2913;51.120;6.772;2023-06-10T07:14:17;28.90;65.50
5775;DHT22;2913;51.120;6.772;2023-06-10T07:16:45;29.20;65.80
5775;DHT22;2913;51.120;6.772;2023-06-10T07:19:11;28.80;65.40
5775;DHT22;2913;51.120;6.772;2023-06-10T07:21:37;28.90;65.70
5775;DHT22;2913;51.120;6.772;2023-06-10T07:24:05;29.10;65.10
5775;DHT22;2913;51.120;6.772;2023-06-10T07:26:31;28.80;64.70
5775;DHT22;2913;51.120;6.772;2023-06-10T07:28:59;28.30;65.30
5775;DHT22;2913;51.120;6.772;2023-06-10T07:31:24;28.40;66.40
5775;DHT22;2913;51.120;6.772;2023-06-10T07:33:50;28.30;66.80
5775;DHT22;2913;51.120;6.772;2023-06-10T07:36:16;28.80;66.20
5775;DHT22;2913;51.120;6.772;2023-06-10T07:38:44;29.00;66.20
5775;DHT22;2913;51.120;6.772;2023-06-10T07:41:09;28.90;66.50
5775;DHT22;2913;51.120;6.772;2023-06-10T07:43:38;28.60;65.90
5775;DHT22;2913;51.120;6.772;2023-06-10T07:46:05;29.00;67.50
5775;DHT22;2913;51.120;6.772;2023-06-10T07:48:31;28.10;66.40
5775;DHT22;2913;51.120;6.772;2023-06-10T07:50:59;28.70;68.10
5775;DHT22;2913;51.120;6.772;2023-06-10T07:53:27;28.60;67.00
5775;DHT22;2913;51.120;6.772;2023-06-10T07:55:55;28.20;67.60
5775;DHT22;2913;51.120;6.772;2023-06-10T07:58:21;28.00;68.20
5775;DHT22;2913;51.120;6.772;2023-06-10T08:00:49;27.90;68.20
5775;DHT22;2913;51.120;6.772;2023-06-10T08:03:15;28.30;68.60
5775;DHT22;2913;51.120;6.772;2023-06-10T08:05:41;28.50;67.70
5775;DHT22;2913;51.120;6.772;2023-06-10T08:08:06;28.60;67.60
5775;DHT22;2913;51.120;6.772;2023-06-10T08:10:34;28.50;68.50
5775;DHT22;2913;51.120;6.772;2023-06-10T08:13:02;29.00;68.40
5775;DHT22;2913;51.120;6.772;2023-06-10T08:15:30;29.10;67.40
5775;DHT22;2913;51.120;6.772;2023-06-10T08:17:56;28.80;66.40
5775;DHT22;2913;51.120;6.772;2023-06-10T08:20:22;29.30;68.90
5775;DHT22;2913;51.120;6.772;2023-06-10T08:22:47;29.30;66.10
5775;DHT22;2913;51.120;6.772;2023-06-10T08:25:16;29.60;67.40
5775;DHT22;2913;51.120;6.772;2023-06-10T08:27:41;29.40;66.60
5775;DHT22;2913;51.120;6.772;2023-06-10T08:30:07;29.20;65.70
5775;DHT22;2913;51.120;6.772;2023-06-10T08:32:38;28.90;65.50
5775;DHT22;2913;51.120;6.772;2023-06-10T08:35:07;29.10;65.50
5775;DHT22;2913;51.120;6.772;2023-06-10T08:37:37;29.10;65.40
5775;DHT22;2913;51.120;6.772;2023-06-10T08:40:06;29.50;66.10
5775;DHT22;2913;51.120;6.772;2023-06-10T08:45:30;29.20;65.50
5775;DHT22;2913;51.120;6.772;2023-06-10T08:48:04;29.50;65.30
5775;DHT22;2913;51.120;6.772;2023-06-10T08:50:37;29.60;65.50
5775;DHT22;2913;51.120;6.772;2023-06-10T08:53:05;29.50;65.20
5775;DHT22;2913;51.120;6.772;2023-06-10T08:55:37;29.30;66.40
5775;DHT22;2913;51.120;6.772;2023-06-10T08:58:03;29.40;67.20
5775;DHT22;2913;51.120;6.772;2023-06-10T09:00:32;29.20;65.30
5775;DHT22;2913;51.120;6.772;2023-06-10T09:02:59;29.20;64.20
5775;DHT22;2913;51.120;6.772;2023-06-10T09:05:24;29.50;67.80
5775;DHT22;2913;51.120;6.772;2023-06-10T09:07:52;29.40;65.20
5775;DHT22;2913;51.120;6.772;2023-06-10T09:10:20;29.50;65.30
5775;DHT22;2913;51.120;6.772;2023-06-10T09:12:48;29.70;65.70
5775;DHT22;2913;51.120;6.772;2023-06-10T09:15:16;29.70;64.60
5775;DHT22;2913;51.120;6.772;2023-06-10T09:17:43;29.60;64.80
5775;DHT22;2913;51.120;6.772;2023-06-10T09:20:09;29.60;66.10
5775;DHT22;2913;51.120;6.772;2023-06-10T09:22:42;29.80;65.00
5775;DHT22;2913;51.120;6.772;2023-06-10T09:25:12;29.70;66.00
5775;DHT22;2913;51.120;6.772;2023-06-10T09:27:51;29.90;66.00
5775;DHT22;2913;51.120;6.772;2023-06-10T09:30:29;29.80;65.20
5775;DHT22;2913;51.120;6.772;2023-06-10T09:32:55;29.80;65.10
5775;DHT22;2913;51.120;6.772;2023-06-10T09:35:23;29.80;65.50
5775;DHT22;2913;51.120;6.772;2023-06-10T09:37:55;29.80;65.70
5775;DHT22;2913;51.120;6.772;2023-06-10T09:40:24;30.00;66.10
5775;DHT22;2913;51.120;6.772;2023-06-10T09:42:54;29.90;67.40
5775;DHT22;2913;51.120;6.772;2023-06-10T09:45:23;29.70;66.60
5775;DHT22;2913;51.120;6.772;2023-06-10T09:47:54;29.70;66.00
5775;DHT22;2913;51.120;6.772;2023-06-10T09:50:21;29.80;65.30
5775;DHT22;2913;51.120;6.772;2023-06-10T09:52:47;29.90;65.20
5775;DHT22;2913;51.120;6.772;2023-06-10T09:55:15;30.10;65.80
5775;DHT22;2913;51.120;6.772;2023-06-10T09:57:41;30.10;65.20
5775;DHT22;2913;51.120;6.772;2023-06-10T10:00:13;30.10;66.10
5775;DHT22;2913;51.120;6.772;2023-06-10T10:02:49;30.20;66.70
5775;DHT22;2913;51.120;6.772;2023-06-10T10:05:19;30.30;66.70
5775;DHT22;2913;51.120;6.772;2023-06-10T10:07:50;30.30;67.00
5775;DHT22;2913;51.120;6.772;2023-06-10T10:10:17;30.50;67.30
5775;DHT22;2913;51.120;6.772;2023-06-10T10:12:48;30.50;63.90
5775;DHT22;2913;51.120;6.772;2023-06-10T10:15:19;30.70;63.30
5775;DHT22;2913;51.120;6.772;2023-06-10T10:20:27;30.90;64.70
5775;DHT22;2913;51.120;6.772;2023-06-10T10:22:57;30.40;62.80
5775;DHT22;2913;51.120;6.772;2023-06-10T10:25:27;30.60;64.70
5775;DHT22;2913;51.120;6.772;2023-06-10T10:28:24;30.60;63.80
5775;DHT22;2913;51.120;6.772;2023-06-10T10:30:59;30.90;64.00
5775;DHT22;2913;51.120;6.772;2023-06-10T10:33:58;30.80;62.80
5775;DHT22;2913;51.120;6.772;2023-06-10T10:36:24;30.70;63.00
5775;DHT22;2913;51.120;6.772;2023-06-10T10:38:53;30.20;64.70
5775;DHT22;2913;51.120;6.772;2023-06-10T10:41:19;30.20;65.00
5775;DHT22;2913;51.120;6.772;2023-06-10T10:43:47;30.00;65.90
5775;DHT22;2913;51.120;6.772;2023-06-10T10:46:16;30.40;66.50
5775;DHT22;2913;51.120;6.772;2023-06-10T10:48:47;30.00;66.50
5775;DHT22;2913;51.120;6.772;2023-06-10T10:51:19;29.90;67.20
5775;DHT22;2913;51.120;6.772;2023-06-10T10:54:12;29.90;67.30
5775;DHT22;2913;51.120;6.772;2023-06-10T10:56:38;30.20;67.40
5775;DHT22;2913;51.120;6.772;2023-06-10T10:59:07;30.20;67.60
5775;DHT22;2913;51.120;6.772;2023-06-10T11:01:45;30.10;67.60
5775;DHT22;2913;51.120;6.772;2023-06-10T11:04:13;30.10;67.50
5775;DHT22;2913;51.120;6.772;2023-06-10T11:06:39;30.50;67.30
5775;DHT22;2913;51.120;6.772;2023-06-10T11:09:27;30.60;64.60
5775;DHT22;2913;51.120;6.772;2023-06-10T11:11:57;30.50;65.90
5775;DHT22;2913;51.120;6.772;2023-06-10T11:14:29;30.60;65.60
5775;DHT22;2913;51.120;6.772;2023-06-10T11:16:59;30.80;65.10
5775;DHT22;2913;51.120;6.772;2023-06-10T11:19:34;30.90;65.50
5775;DHT22;2913;51.120;6.772;2023-06-10T11:22:05;31.00;65.00
5775;DHT22;2913;51.120;6.772;2023-06-10T11:24:33;31.10;64.80
5775;DHT22;2913;51.120;6.772;2023-06-10T11:27:24;31.50;64.50
5775;DHT22;2913;51.120;6.772;2023-06-10T11:29:57;31.40;64.10
5775;DHT22;2913;51.120;6.772;2023-06-10T11:32:29;31.50;62.80
5775;DHT22;2913;51.120;6.772;2023-06-10T11:35:00;31.20;61.90
5775;DHT22;2913;51.120;6.772;2023-06-10T11:37:30;31.40;62.70
5775;DHT22;2913;51.120;6.772;2023-06-10T11:39:59;31.20;62.80
5775;DHT22;2913;51.120;6.772;2023-06-10T11:42:27;31.30;61.80
5775;DHT22;2913;51.120;6.772;2023-06-10T11:44:53;31.10;61.80
5775;DHT22;2913;51.120;6.772;2023-06-10T11:47:20;30.80;62.00
5775;DHT22;2913;51.120;6.772;2023-06-10T11:49:46;30.40;61.20
5775;DHT22;2913;51.120;6.772;2023-06-10T11:52:30;30.30;61.90
5775;DHT22;2913;51.120;6.772;2023-06-10T11:55:06;30.60;61.10
5775;DHT22;2913;51.120;6.772;2023-06-10T11:57:35;30.50;60.10
5775;DHT22;2913;51.120;6.772;2023-06-10T12:00:07;30.50;59.20
5775;DHT22;2913;51.120;6.772;2023-06-10T12:02:33;30.50;59.30
5775;DHT22;2913;51.120;6.772;2023-06-10T12:05:11;30.60;58.90
5775;DHT22;2913;51.120;6.772;2023-06-10T12:07:41;30.80;58.90
5775;DHT22;2913;51.120;6.772;2023-06-10T12:10:07;30.70;59.50
5775;DHT22;2913;51.120;6.772;2023-06-10T12:12:35;31.10;59.50
5775;DHT22;2913;51.120;6.772;2023-06-10T12:15:04;31.20;59.80
5775;DHT22;2913;51.120;6.772;2023-06-10T12:20:03;31.30;59.50
5775;DHT22;2913;51.120;6.772;2023-06-10T12:22:45;31.30;59.90
5775;DHT22;2913;51.120;6.772;2023-06-10T12:25:11;30.70;59.70
5775;DHT22;2913;51.120;6.772;2023-06-10T12:27:49;30.20;60.60
5775;DHT22;2913;51.120;6.772;2023-06-10T12:30:19;30.00;61.80
5775;DHT22;2913;51.120;6.772;2023-06-10T12:32:47;30.30;62.90
5775;DHT22;2913;51.120;6.772;2023-06-10T12:35:21;30.30;62.90
5775;DHT22;2913;51.120;6.772;2023-06-10T12:37:56;30.10;63.30
5775;DHT22;2913;51.120;6.772;2023-06-10T12:40:27;30.40;63.50
5775;DHT22;2913;51.120;6.772;2023-06-10T12:42:56;30.10;64.00
5775;DHT22;2913;51.120;6.772;2023-06-10T12:45:35;30.30;64.60
5775;DHT22;2913;51.120;6.772;2023-06-10T12:48:05;30.40;63.90
5775;DHT22;2913;51.120;6.772;2023-06-10T12:50:32;30.20;63.90
5775;DHT22;2913;51.120;6.772;2023-06-10T12:52:59;30.00;63.70
5775;DHT22;2913;51.120;6.772;2023-06-10T12:55:28;30.30;63.90
5775;DHT22;2913;51.120;6.772;2023-06-10T12:57:54;30.50;64.00
5775;DHT22;2913;51.120;6.772;2023-06-10T13:00:21;30.50;64.20
5775;DHT22;2913;51.120;6.772;2023-06-10T13:02:48;30.40;64.40
5775;DHT22;2913;51.120;6.772;2023-06-10T13:05:19;30.50;64.80
5775;DHT22;2913;51.120;6.772;2023-06-10T13:07:47;30.70;64.40
5775;DHT22;2913;51.120;6.772;2023-06-10T13:10:16;31.00;64.30
5775;DHT22;2913;51.120;6.772;2023-06-10T13:12:45;30.80;63.30
5775;DHT22;2913;51.120;6.772;2023-06-10T13:15:11;31.00;61.20
5775;DHT22;2913;51.120;6.772;2023-06-10T13:17:40;31.10;60.50
5775;DHT22;2913;51.120;6.772;2023-06-10T13:20:08;31.00;59.70
5775;DHT22;2913;51.120;6.772;2023-06-10T13:22:34;31.40;59.80
5775;DHT22;2913;51.120;6.772;2023-06-10T13:25:07;31.70;57.20
5775;DHT22;2913;51.120;6.772;2023-06-10T13:27:34;31.70;55.50
5775;DHT22;2913;51.120;6.772;2023-06-10T13:30:05;32.00;56.40
5775;DHT22;2913;51.120;6.772;2023-06-10T13:32:33;32.20;56.30
5775;DHT22;2913;51.120;6.772;2023-06-10T13:34:58;31.80;55.20
5775;DHT22;2913;51.120;6.772;2023-06-10T13:37:29;32.10;55.10
5775;DHT22;2913;51.120;6.772;2023-06-10T13:39:55;32.00;54.80
5775;DHT22;2913;51.120;6.772;2023-06-10T13:42:21;31.80;55.60
5775;DHT22;2913;51.120;6.772;2023-06-10T13:44:47;31.60;54.90
5775;DHT22;2913;51.120;6.772;2023-06-10T13:47:16;31.80;54.90
5775;DHT22;2913;51.120;6.772;2023-06-10T13:49:44;32.10;53.60
5775;DHT22;2913;51.120;6.772;2023-06-10T13:52:14;32.20;52.30
5775;DHT22;2913;51.120;6.772;2023-06-10T13:54:40;32.40;53.90
5775;DHT22;2913;51.120;6.772;2023-06-10T13:57:06;32.40;52.50
5775;DHT22;2913;51.120;6.772;2023-06-10T13:59:31;32.10;52.80
5775;DHT22;2913;51.120;6.772;2023-06-10T14:02:03;32.40;53.80
5775;DHT22;2913;51.120;6.772;2023-06-10T14:04:31;32.30;53.70
5775;DHT22;2913;51.120;6.772;2023-06-10T14:06:57;32.30;53.80
5775;DHT22;2913;51.120;6.772;2023-06-10T14:09:26;32.00;58.70
5775;DHT22;2913;51.120;6.772;2023-06-10T14:11:51;31.80;59.30
5775;DHT22;2913;51.120;6.772;2023-06-10T14:14:20;31.70;59.70
5775;DHT22;2913;51.120;6.772;2023-06-10T14:16:48;31.50;60.20
5775;DHT22;2913;51.120;6.772;2023-06-10T14:19:13;31.20;61.00
5775;DHT22;2913;51.120;6.772;2023-06-10T14:21:41;31.20;60.80
5775;DHT22;2913;51.120;6.772;2023-06-10T14:24:11;30.90;61.30
5775;DHT22;2913;51.120;6.772;2023-06-10T14:26:39;30.90;61.40
5775;DHT22;2913;51.120;6.772;2023-06-10T14:29:05;30.90;60.20
5775;DHT22;2913;51.120;6.772;2023-06-10T14:31:30;30.90;61.10
5775;DHT22;2913;51.120;6.772;2023-06-10T14:33:59;30.70;61.50
5775;DHT22;2913;51.120;6.772;2023-06-10T14:36:24;30.50;61.80
5775;DHT22;2913;51.120;6.772;2023-06-10T14:38:52;30.20;62.10
5775;DHT22;2913;51.120;6.772;2023-06-10T14:41:22;29.90;62.60
5775;DHT22;2913;51.120;6.772;2023-06-10T14:43:47;30.10;62.40
5775;DHT22;2913;51.120;6.772;2023-06-10T14:46:18;30.20;61.70
5775;DHT22;2913;51.120;6.772;2023-06-10T14:48:46;30.10;60.90
5775;DHT22;2913;51.120;6.772;2023-06-10T14:51:14;30.20;61.60
5775;DHT22;2913;51.120;6.772;2023-06-10T14:53:42;30.50;61.20
5775;DHT22;2913;51.120;6.772;2023-06-10T14:56:08;30.50;60.90
5775;DHT22;2913;51.120;6.772;2023-06-10T14:58:35;30.50;60.30
5775;DHT22;2913;51.120;6.772;2023-06-10T15:01:03;30.40;60.00
5775;DHT22;2913;51.120;6.772;2023-06-10T15:05:55;30.20;59.70
5775;DHT22;2913;51.120;6.772;2023-06-10T15:08:25;30.20;60.60
5775;DHT22;2913;51.120;6.772;2023-06-10T15:13:19;30.50;60.40
5775;DHT22;2913;51.120;6.772;2023-06-10T15:15:45;30.50;60.50
5775;DHT22;2913;51.120;6.772;2023-06-10T15:18:11;30.50;60.10
5775;DHT22;2913;51.120;6.772;2023-06-10T15:20:38;30.50;59.90
5775;DHT22;2913;51.120;6.772;2023-06-10T15:23:04;30.60;60.00
5775;DHT22;2913;51.120;6.772;2023-06-10T15:25:29;30.40;59.40
5775;DHT22;2913;51.120;6.772;2023-06-10T15:27:57;30.40;58.90
5775;DHT22;2913;51.120;6.772;2023-06-10T15:30:26;30.50;58.50
5775;DHT22;2913;51.120;6.772;2023-06-10T15:32:51;30.60;58.10
5775;DHT22;2913;51.120;6.772;2023-06-10T15:35:19;30.60;58.00
5775;DHT22;2913;51.120;6.772;2023-06-10T15:37:47;30.60;57.20
5775;DHT22;2913;51.120;6.772;2023-06-10T15:40:15;30.50;57.50
5775;DHT22;2913;51.120;6.772;2023-06-10T15:42:45;30.50;57.70
5775;DHT22;2913;51.120;6.772;2023-06-10T15:45:11;30.60;57.90
5775;DHT22;2913;51.120;6.772;2023-06-10T15:47:36;30.60;58.60
5775;DHT22;2913;51.120;6.772;2023-06-10T15:50:02;30.60;58.60
5775;DHT22;2913;51.120;6.772;2023-06-10T15:52:32;30.60;58.50
5775;DHT22;2913;51.120;6.772;2023-06-10T15:54:57;30.80;58.70
5775;DHT22;2913;51.120;6.772;2023-06-10T15:57:23;30.80;59.20
5775;DHT22;2913;51.120;6.772;2023-06-10T15:59:51;30.90;59.10
5775;DHT22;2913;51.120;6.772;2023-06-10T16:02:16;30.90;59.20
5775;DHT22;2913;51.120;6.772;2023-06-10T16:04:42;30.90;59.50
5775;DHT22;2913;51.120;6.772;2023-06-10T16:07:10;31.10;58.80
5775;DHT22;2913;51.120;6.772;2023-06-10T16:09:36;30.90;58.80
5775;DHT22;2913;51.120;6.772;2023-06-10T16:12:04;30.90;58.70
5775;DHT22;2913;51.120;6.772;2023-06-10T16:14:33;30.50;58.70
5775;DHT22;2913;51.120;6.772;2023-06-10T16:17:01;30.40;59.00
5775;DHT22;2913;51.120;6.772;2023-06-10T16:19:27;30.30;55.60
5775;DHT22;2913;51.120;6.772;2023-06-10T16:21:55;30.30;56.00
5775;DHT22;2913;51.120;6.772;2023-06-10T16:24:23;30.30;55.20
5775;DHT22;2913;51.120;6.772;2023-06-10T16:26:51;30.20;54.20